Time,TemperatureF,DewpointF,PressureIn,WindDirection,WindDirectionDegrees,WindSpeedMPH,WindSpeedGustMPH,Humidity,HourlyPrecipIn,Conditions,Clouds,dailyrainin,SoftwareType,DateUTC
2013-05-20 00:01:00,61.5,57.6,30.03,NNE,21,0.0,0.0,87,0.00,,---,0.00,VWS V14.01,2013-05-20 04:01:00,
2013-05-20 00:06:00,61.5,57.6,30.03,NNE,21,0.0,0.0,87,0.00,,---,0.00,VWS V14.01,2013-05-20 04:06:00,
2013-05-20 00:11:00,61.5,57.6,30.03,NNE,21,0.0,0.0,87,0.00,,---,0.00,VWS V14.01,2013-05-20 04:11:00,
2013-05-20 00:16:00,61.5,57.9,30.03,NNE,21,0.0,0.0,88,0.00,,---,0.00,VWS V14.01,2013-05-20 04:16:00,
2013-05-20 00:21:00,61.5,57.9,30.03,NNE,21,0.0,0.0,88,0.00,,---,0.00,VWS V14.01,2013-05-20 04:21:00,
2013-05-20 00:26:00,61.5,57.9,30.03,NNE,21,0.0,0.0,88,0.00,,---,0.00,VWS V14.01,2013-05-20 04:26:00,
2013-05-20 00:31:00,61.5,57.9,30.03,NNE,21,0.0,0.0,88,0.00,,---,0.00,VWS V14.01,2013-05-20 04:31:00,
2013-05-20 00:36:00,61.5,57.9,30.03,NNE,21,0.0,0.0,88,0.00,,---,0.00,VWS V14.01,2013-05-20 04:36:00,
2013-05-20 00:41:00,61.7,58.1,30.03,NNE,17,0.0,0.0,88,0.00,,---,0.00,VWS V14.01,2013-05-20 04:41:00,
2013-05-20 00:46:00,61.7,58.4,30.03,North,357,0.0,0.0,89,0.00,,---,0.00,VWS V14.01,2013-05-20 04:46:00,
2013-05-20 00:51:00,61.9,58.6,30.03,ENE,78,0.0,0.0,89,0.00,,---,0.00,VWS V14.01,2013-05-20 04:51:00,
2013-05-20 00:56:00,62.1,58.8,30.03,ENE,78,0.0,0.0,89,0.00,,---,0.00,VWS V14.01,2013-05-20 04:56:00,
2013-05-20 01:01:00,61.9,58.6,30.03,ENE,78,0.0,0.0,89,0.00,,---,0.00,VWS V14.01,2013-05-20 05:01:00,
2013-05-20 01:06:00,61.9,58.6,30.03,NE,43,0.0,0.0,89,0.00,,---,0.00,VWS V14.01,2013-05-20 05:06:00,
2013-05-20 01:11:00,61.9,58.6,30.03,NE,43,0.0,0.0,89,0.00,,---,0.00,VWS V14.01,2013-05-20 05:11:00,
2013-05-20 01:16:00,61.7,58.4,30.03,NE,43,0.0,0.0,89,0.00,,---,0.00,VWS V14.01,2013-05-20 05:16:00,
2013-05-20 01:21:00,61.7,58.4,30.03,NE,43,0.0,0.0,89,0.00,,---,0.00,VWS V14.01,2013-05-20 05:21:00,
2013-05-20 01:26:00,61.7,58.4,30.03,NE,43,0.0,0.0,89,0.00,,---,0.00,VWS V14.01,2013-05-20 05:26:00,
2013-05-20 01:31:00,61.5,58.2,30.03,NE,43,0.0,0.0,89,0.00,,---,0.00,VWS V14.01,2013-05-20 05:31:00,
2013-05-20 01:36:00,61.5,58.2,30.03,NE,43,0.0,0.0,89,0.00,,---,0.00,VWS V14.01,2013-05-20 05:36:00,
2013-05-20 01:41:00,61.5,58.2,30.03,NE,43,0.0,0.0,89,0.00,,---,0.00,VWS V14.01,2013-05-20 05:41:00,
2013-05-20 01:46:00,61.5,58.2,30.03,NE,43,0.0,0.0,89,0.00,,---,0.00,VWS V14.01,2013-05-20 05:46:00,
2013-05-20 01:52:00,61.5,58.2,30.03,NE,43,0.0,0.0,89,0.00,,---,0.00,VWS V14.01,2013-05-20 05:52:00,
2013-05-20 01:57:00,61.3,58.1,30.03,NE,43,0.0,0.0,89,0.04,,---,0.04,VWS V14.01,2013-05-20 05:57:00,
2013-05-20 02:02:00,61.3,58.1,30.03,NE,43,0.0,0.0,89,0.04,,---,0.04,VWS V14.01,2013-05-20 06:02:00,
2013-05-20 02:07:00,61.3,58.1,30.03,NE,43,0.0,0.0,89,0.04,,---,0.04,VWS V14.01,2013-05-20 06:07:00,
2013-05-20 02:12:00,61.3,58.1,30.03,NE,43,0.0,0.0,89,0.04,,---,0.04,VWS V14.01,2013-05-20 06:12:00,
2013-05-20 02:17:00,61.2,57.9,30.03,NE,43,0.0,0.0,89,0.04,,---,0.04,VWS V14.01,2013-05-20 06:17:00,
2013-05-20 02:22:00,61.2,57.9,30.03,NE,43,0.0,0.0,89,0.04,,---,0.04,VWS V14.01,2013-05-20 06:22:00,
2013-05-20 02:27:00,61.2,57.9,30.03,NE,43,0.0,0.0,89,0.04,,---,0.04,VWS V14.01,2013-05-20 06:27:00,
2013-05-20 02:32:00,61.2,58.2,30.03,NE,43,0.0,0.0,90,0.04,,---,0.04,VWS V14.01,2013-05-20 06:32:00,
2013-05-20 02:37:00,61.0,58.0,30.03,NE,43,0.0,0.0,90,0.04,,---,0.04,VWS V14.01,2013-05-20 06:37:00,
2013-05-20 02:42:00,61.0,58.0,30.03,NE,43,0.0,0.0,90,0.04,,---,0.04,VWS V14.01,2013-05-20 06:42:00,
2013-05-20 02:47:00,61.0,58.0,30.03,NE,43,0.0,0.0,90,0.04,,---,0.04,VWS V14.01,2013-05-20 06:47:00,
2013-05-20 02:52:00,60.8,57.8,30.03,NE,43,0.0,0.0,90,0.04,,---,0.04,VWS V14.01,2013-05-20 06:52:00,
2013-05-20 02:57:00,60.6,57.7,30.01,NE,44,0.0,0.0,90,0.00,,---,0.04,VWS V14.01,2013-05-20 06:57:00,
2013-05-20 03:02:00,60.4,57.5,30.01,NE,44,0.0,0.0,90,0.00,,---,0.04,VWS V14.01,2013-05-20 07:02:00,
2013-05-20 03:07:00,60.4,57.5,30.01,NE,44,0.0,0.0,90,0.00,,---,0.04,VWS V14.01,2013-05-20 07:07:00,
2013-05-20 03:12:00,60.3,57.3,30.01,NE,44,0.0,0.0,90,0.00,,---,0.04,VWS V14.01,2013-05-20 07:12:00,
2013-05-20 03:17:00,60.3,57.3,30.01,NE,44,0.0,0.0,90,0.00,,---,0.04,VWS V14.01,2013-05-20 07:17:00,
2013-05-20 03:22:00,60.1,57.1,30.01,NE,44,0.0,0.0,90,0.00,,---,0.04,VWS V14.01,2013-05-20 07:22:00,
2013-05-20 03:27:00,59.9,57.0,30.03,NE,44,0.0,0.0,90,0.00,,---,0.04,VWS V14.01,2013-05-20 07:27:00,
2013-05-20 03:32:00,59.9,57.3,30.03,NE,44,0.0,0.0,91,0.00,,---,0.04,VWS V14.01,2013-05-20 07:32:00,
2013-05-20 03:37:00,60.1,57.5,30.03,NE,44,0.0,0.0,91,0.00,,---,0.04,VWS V14.01,2013-05-20 07:37:00,
2013-05-20 03:42:00,60.1,57.5,30.03,NE,44,0.0,0.0,91,0.00,,---,0.04,VWS V14.01,2013-05-20 07:42:00,
2013-05-20 03:47:00,60.1,57.5,30.03,NE,44,0.0,0.0,91,0.00,,---,0.04,VWS V14.01,2013-05-20 07:47:00,
2013-05-20 03:52:00,60.1,57.5,30.03,NE,44,0.0,0.0,91,0.00,,---,0.04,VWS V14.01,2013-05-20 07:52:00,
2013-05-20 03:57:00,60.3,57.9,30.03,NE,44,0.0,0.0,92,0.00,,---,0.04,VWS V14.01,2013-05-20 07:57:00,
2013-05-20 04:02:00,60.3,57.9,30.03,NE,44,0.0,0.0,92,0.00,,---,0.04,VWS V14.01,2013-05-20 08:02:00,
2013-05-20 04:07:00,60.3,57.9,30.03,NE,44,0.0,0.0,92,0.00,,---,0.04,VWS V14.01,2013-05-20 08:07:00,
2013-05-20 04:12:00,60.4,58.1,30.03,NE,44,0.0,0.0,92,0.00,,---,0.04,VWS V14.01,2013-05-20 08:12:00,
2013-05-20 04:17:00,60.4,58.1,30.03,NE,44,0.0,0.0,92,0.00,,---,0.04,VWS V14.01,2013-05-20 08:17:00,
2013-05-20 04:22:00,60.4,58.1,30.03,NE,44,0.0,0.0,92,0.00,,---,0.04,VWS V14.01,2013-05-20 08:22:00,
2013-05-20 04:27:00,60.4,58.1,30.03,NE,44,0.0,0.0,92,0.00,,---,0.04,VWS V14.01,2013-05-20 08:27:00,
2013-05-20 04:32:00,60.4,58.1,30.03,NE,44,0.0,0.0,92,0.00,,---,0.04,VWS V14.01,2013-05-20 08:32:00,
2013-05-20 04:37:00,60.6,58.3,30.03,NE,44,0.0,0.0,92,0.00,,---,0.04,VWS V14.01,2013-05-20 08:37:00,
2013-05-20 04:42:00,60.6,58.6,30.03,NE,44,0.0,0.0,93,0.00,,---,0.04,VWS V14.01,2013-05-20 08:42:00,
2013-05-20 04:47:00,60.6,58.6,30.03,NE,44,0.0,0.0,93,0.00,,---,0.04,VWS V14.01,2013-05-20 08:47:00,
2013-05-20 04:52:00,60.8,58.5,30.03,NE,44,0.0,0.0,92,0.00,,---,0.04,VWS V14.01,2013-05-20 08:52:00,
2013-05-20 04:57:00,60.8,58.5,30.03,NE,44,0.0,0.0,92,0.00,,---,0.04,VWS V14.01,2013-05-20 08:57:00,
2013-05-20 05:02:00,60.8,58.8,30.03,NE,44,0.0,0.0,93,0.00,,---,0.04,VWS V14.01,2013-05-20 09:02:00,
2013-05-20 05:07:00,60.8,58.8,30.03,NE,44,0.0,0.0,93,0.00,,---,0.04,VWS V14.01,2013-05-20 09:07:00,
2013-05-20 05:12:00,60.8,58.8,30.03,NE,44,0.0,0.0,93,0.00,,---,0.04,VWS V14.01,2013-05-20 09:12:00,
2013-05-20 05:17:00,60.6,58.6,30.03,NE,44,0.0,0.0,93,0.00,,---,0.04,VWS V14.01,2013-05-20 09:17:00,
2013-05-20 05:22:00,60.6,58.6,30.03,NE,44,0.0,0.0,93,0.00,,---,0.04,VWS V14.01,2013-05-20 09:22:00,
2013-05-20 05:27:00,60.6,58.6,30.03,NE,44,0.0,0.0,93,0.00,,---,0.04,VWS V14.01,2013-05-20 09:27:00,
2013-05-20 05:32:00,60.6,58.6,30.03,NE,44,0.0,0.0,93,0.00,,---,0.04,VWS V14.01,2013-05-20 09:32:00,
2013-05-20 05:37:00,60.6,58.6,30.03,NE,44,0.0,0.0,93,0.00,,---,0.04,VWS V14.01,2013-05-20 09:37:00,
2013-05-20 05:42:00,60.6,58.6,30.03,NE,44,0.0,0.0,93,0.00,,---,0.04,VWS V14.01,2013-05-20 09:42:00,
2013-05-20 05:47:00,60.6,58.6,30.03,NE,44,0.0,0.0,93,0.00,,---,0.04,VWS V14.01,2013-05-20 09:47:00,
2013-05-20 05:52:00,60.4,58.7,30.03,NE,44,0.0,0.0,94,0.00,,---,0.04,VWS V14.01,2013-05-20 09:52:00,
2013-05-20 05:57:00,60.4,58.7,30.03,NE,44,0.0,0.0,94,0.00,,---,0.04,VWS V14.01,2013-05-20 09:57:00,
2013-05-20 06:02:00,60.4,58.7,30.03,NE,41,0.0,0.0,94,0.00,,---,0.04,VWS V14.01,2013-05-20 10:02:00,
2013-05-20 06:07:00,60.3,58.5,30.03,NE,43,0.0,0.0,94,0.00,,---,0.04,VWS V14.01,2013-05-20 10:07:00,
2013-05-20 06:12:00,60.1,58.3,30.03,NE,44,0.0,0.0,94,0.00,,---,0.04,VWS V14.01,2013-05-20 10:12:00,
2013-05-20 06:17:00,59.9,57.9,30.03,NE,44,0.0,0.0,93,0.00,,---,0.04,VWS V14.01,2013-05-20 10:17:00,
2013-05-20 06:22:00,59.7,57.7,30.03,NE,44,0.0,0.0,93,0.00,,---,0.04,VWS V14.01,2013-05-20 10:22:00,
2013-05-20 06:28:00,59.7,57.7,30.03,NE,44,0.0,0.0,93,0.00,,---,0.04,VWS V14.01,2013-05-20 10:28:00,
2013-05-20 06:33:00,59.7,58.0,30.03,NE,49,0.0,0.0,94,0.00,,---,0.04,VWS V14.01,2013-05-20 10:33:00,
2013-05-20 06:38:00,59.7,58.0,30.03,NE,49,0.0,0.0,94,0.00,,---,0.04,VWS V14.01,2013-05-20 10:38:00,
2013-05-20 06:43:00,59.9,58.2,30.03,NE,49,0.0,0.0,94,0.00,,---,0.04,VWS V14.01,2013-05-20 10:43:00,
2013-05-20 06:48:00,59.9,58.2,30.03,NE,49,0.0,0.0,94,0.00,,---,0.04,VWS V14.01,2013-05-20 10:48:00,
2013-05-20 06:53:00,59.9,58.2,30.03,NE,49,0.0,0.0,94,0.00,,---,0.04,VWS V14.01,2013-05-20 10:53:00,
2013-05-20 06:58:00,59.9,58.2,30.03,NE,49,0.0,0.0,94,0.00,,---,0.04,VWS V14.01,2013-05-20 10:58:00,
2013-05-20 07:03:00,60.1,58.7,30.03,NE,49,0.0,0.0,95,0.00,,---,0.04,VWS V14.01,2013-05-20 11:03:00,
2013-05-20 07:08:00,60.3,58.8,30.03,NE,49,0.0,0.0,95,0.00,,---,0.04,VWS V14.01,2013-05-20 11:08:00,
2013-05-20 07:13:00,60.4,59.0,30.03,NE,49,0.0,0.0,95,0.00,,---,0.04,VWS V14.01,2013-05-20 11:13:00,
2013-05-20 07:18:00,60.6,59.2,30.03,NE,49,0.0,0.0,95,0.00,,---,0.04,VWS V14.01,2013-05-20 11:18:00,
2013-05-20 07:23:00,60.6,59.2,30.03,NE,49,0.0,0.0,95,0.00,,---,0.04,VWS V14.01,2013-05-20 11:23:00,
2013-05-20 07:28:00,60.8,59.4,30.03,NE,49,0.0,0.0,95,0.00,,---,0.04,VWS V14.01,2013-05-20 11:28:00,
2013-05-20 07:33:00,60.8,59.4,30.03,NE,49,0.0,0.0,95,0.00,,---,0.04,VWS V14.01,2013-05-20 11:33:00,
2013-05-20 07:38:00,60.8,59.4,30.03,NE,49,0.0,0.0,95,0.00,,---,0.04,VWS V14.01,2013-05-20 11:38:00,
2013-05-20 07:43:00,61.0,59.5,30.03,NE,49,0.0,0.0,95,0.00,,---,0.04,VWS V14.01,2013-05-20 11:43:00,
2013-05-20 07:48:00,61.3,59.9,30.03,ENE,78,0.0,0.0,95,0.00,,---,0.04,VWS V14.01,2013-05-20 11:48:00,
2013-05-20 07:53:00,61.3,59.9,30.03,ENE,78,0.0,0.0,95,0.00,,---,0.04,VWS V14.01,2013-05-20 11:53:00,
2013-05-20 07:58:00,61.3,59.9,30.03,ESE,106,0.0,0.0,95,0.00,,---,0.04,VWS V14.01,2013-05-20 11:58:00,
2013-05-20 08:03:00,61.3,59.9,30.03,ESE,106,0.0,0.0,95,0.00,,---,0.04,VWS V14.01,2013-05-20 12:03:00,
2013-05-20 08:08:00,61.5,60.1,30.03,ESE,106,0.0,0.0,95,0.00,,---,0.04,VWS V14.01,2013-05-20 12:08:00,
2013-05-20 08:13:00,61.7,60.3,30.06,SE,132,0.0,0.0,95,0.00,,---,0.04,VWS V14.01,2013-05-20 12:13:00,
2013-05-20 08:18:00,61.7,60.3,30.06,SE,132,0.0,0.0,95,0.00,,---,0.04,VWS V14.01,2013-05-20 12:18:00,
2013-05-20 08:23:00,61.7,60.3,30.06,SE,132,0.0,0.0,95,0.00,,---,0.04,VWS V14.01,2013-05-20 12:23:00,
2013-05-20 08:28:00,61.7,60.3,30.06,SE,132,0.0,0.0,95,0.00,,---,0.04,VWS V14.01,2013-05-20 12:28:00,
2013-05-20 08:33:00,61.9,60.4,30.06,SE,132,0.0,0.0,95,0.00,,---,0.04,VWS V14.01,2013-05-20 12:33:00,
2013-05-20 08:38:00,62.1,60.6,30.06,SE,132,0.0,0.0,95,0.00,,---,0.04,VWS V14.01,2013-05-20 12:38:00,
2013-05-20 08:43:00,62.1,60.6,30.06,SE,132,0.0,0.0,95,0.00,,---,0.04,VWS V14.01,2013-05-20 12:43:00,
2013-05-20 08:48:00,62.2,61.1,30.06,SE,132,0.0,0.0,96,0.00,,---,0.04,VWS V14.01,2013-05-20 12:48:00,
2013-05-20 08:53:00,62.2,61.1,30.06,SE,132,0.0,0.0,96,0.00,,---,0.04,VWS V14.01,2013-05-20 12:53:00,
2013-05-20 08:58:00,62.4,61.3,30.06,SE,132,0.0,0.0,96,0.00,,---,0.04,VWS V14.01,2013-05-20 12:58:00,
2013-05-20 09:03:00,62.4,61.3,30.06,SE,132,0.0,0.0,96,0.00,,---,0.04,VWS V14.01,2013-05-20 13:03:00,
2013-05-20 09:08:00,62.6,61.2,30.06,SE,132,0.0,0.0,95,0.00,,---,0.04,VWS V14.01,2013-05-20 13:08:00,
2013-05-20 09:13:00,63.0,61.8,30.06,SE,132,0.0,0.0,96,0.00,,---,0.04,VWS V14.01,2013-05-20 13:13:00,
2013-05-20 09:18:00,63.1,62.0,30.06,SE,132,0.0,0.0,96,0.00,,---,0.04,VWS V14.01,2013-05-20 13:18:00,
2013-05-20 09:23:00,63.3,62.2,30.06,SE,132,0.0,0.0,96,0.00,,---,0.04,VWS V14.01,2013-05-20 13:23:00,
2013-05-20 09:28:00,63.9,62.7,30.06,South,189,0.0,0.0,96,0.00,,---,0.04,VWS V14.01,2013-05-20 13:28:00,
2013-05-20 09:33:00,64.2,63.1,30.06,South,189,0.0,0.0,96,0.00,,---,0.04,VWS V14.01,2013-05-20 13:33:00,
2013-05-20 09:38:00,64.4,63.2,30.06,South,189,0.0,0.0,96,0.00,,---,0.04,VWS V14.01,2013-05-20 13:38:00,
2013-05-20 09:43:00,64.8,63.6,30.06,South,189,0.0,0.0,96,0.00,,---,0.04,VWS V14.01,2013-05-20 13:43:00,
2013-05-20 09:48:00,64.9,63.8,30.06,South,189,0.0,0.0,96,0.00,,---,0.04,VWS V14.01,2013-05-20 13:48:00,
2013-05-20 09:53:00,65.3,64.1,30.06,SW,228,3.1,3.6,96,0.00,,---,0.04,VWS V14.01,2013-05-20 13:53:00,
2013-05-20 09:58:00,65.3,63.8,30.06,South,170,0.0,0.0,95,0.00,,---,0.04,VWS V14.01,2013-05-20 13:58:00,
2013-05-20 10:03:00,65.7,64.2,30.06,WSW,237,2.2,2.7,95,0.00,,---,0.04,VWS V14.01,2013-05-20 14:03:00,
2013-05-20 10:08:00,65.7,63.9,30.06,WSW,237,0.0,0.0,94,0.00,,---,0.04,VWS V14.01,2013-05-20 14:08:00,
2013-05-20 10:13:00,66.0,64.2,30.06,SSW,203,4.0,4.9,94,0.00,,---,0.04,VWS V14.01,2013-05-20 14:13:00,
2013-05-20 10:18:00,66.0,63.3,30.06,SW,229,0.0,0.0,91,0.00,,---,0.04,VWS V14.01,2013-05-20 14:18:00,
2013-05-20 10:23:00,66.0,62.0,30.06,SW,215,0.0,2.2,87,0.00,,---,0.04,VWS V14.01,2013-05-20 14:23:00,
2013-05-20 10:28:00,66.6,61.9,30.06,SSE,159,3.6,3.6,85,0.00,,---,0.04,VWS V14.01,2013-05-20 14:28:00,
2013-05-20 10:33:00,66.9,60.6,30.06,SW,224,0.0,2.2,80,0.00,,---,0.04,VWS V14.01,2013-05-20 14:33:00,
2013-05-20 10:38:00,67.1,60.4,30.06,SW,220,0.0,2.7,79,0.00,,---,0.04,VWS V14.01,2013-05-20 14:38:00,
2013-05-20 10:43:00,67.6,60.2,30.06,SSE,147,3.1,3.1,77,0.00,,---,0.04,VWS V14.01,2013-05-20 14:43:00,
2013-05-20 10:49:00,67.8,60.0,30.06,SW,218,4.0,4.9,76,0.00,,---,0.04,VWS V14.01,2013-05-20 14:49:00,
2013-05-20 10:54:00,67.6,55.9,30.06,WSW,244,3.1,3.1,66,0.00,,---,0.04,VWS V14.01,2013-05-20 14:54:00,
2013-05-20 10:59:00,68.2,56.8,30.06,SW,222,2.7,3.6,67,0.00,,---,0.04,VWS V14.01,2013-05-20 14:59:00,
2013-05-20 11:04:00,68.5,55.0,30.06,West,269,3.6,6.3,62,0.00,,---,0.04,VWS V14.01,2013-05-20 15:04:00,
2013-05-20 11:09:00,69.1,56.8,30.06,NNE,23,3.1,4.0,65,0.00,,---,0.04,VWS V14.01,2013-05-20 15:09:00,
2013-05-20 11:14:00,69.4,54.0,30.06,SW,222,3.1,5.4,58,0.00,,---,0.04,VWS V14.01,2013-05-20 15:14:00,
2013-05-20 11:19:00,69.8,52.9,30.06,SW,234,3.1,3.1,55,0.00,,---,0.04,VWS V14.01,2013-05-20 15:19:00,
2013-05-20 11:24:00,70.0,52.1,30.06,SW,216,4.0,5.8,53,0.00,,---,0.04,VWS V14.01,2013-05-20 15:24:00,
2013-05-20 11:29:00,70.0,53.6,30.06,SW,233,4.9,4.9,56,0.00,,---,0.04,VWS V14.01,2013-05-20 15:29:00,
2013-05-20 11:34:00,70.2,51.2,30.06,SW,223,4.5,4.5,51,0.00,,---,0.04,VWS V14.01,2013-05-20 15:34:00,
2013-05-20 11:39:00,70.0,52.1,30.06,West,270,2.7,3.1,53,0.00,,---,0.04,VWS V14.01,2013-05-20 15:39:00,
2013-05-20 11:44:00,70.0,51.0,30.06,SW,220,4.0,4.9,51,0.00,,---,0.04,VWS V14.01,2013-05-20 15:44:00,
2013-05-20 11:49:00,69.8,51.4,30.06,SW,214,4.0,4.0,52,0.00,,---,0.04,VWS V14.01,2013-05-20 15:49:00,
2013-05-20 11:54:00,70.0,52.6,30.06,SW,234,0.0,0.0,54,0.00,,---,0.04,VWS V14.01,2013-05-20 15:54:00,
2013-05-20 11:59:00,70.3,52.9,30.03,WSW,255,6.3,6.3,54,0.00,,---,0.04,VWS V14.01,2013-05-20 15:59:00,
2013-05-20 12:04:00,70.2,50.1,30.03,SW,229,2.2,5.4,49,0.00,,---,0.04,VWS V14.01,2013-05-20 16:04:00,
2013-05-20 12:09:00,70.0,51.0,30.03,WSW,245,3.1,4.0,51,0.00,,---,0.04,VWS V14.01,2013-05-20 16:09:00,
2013-05-20 12:14:00,69.8,50.9,30.06,WSW,243,5.4,5.8,51,0.00,,---,0.04,VWS V14.01,2013-05-20 16:14:00,
2013-05-20 12:19:00,70.0,51.0,30.06,West,264,3.6,5.4,51,0.00,,---,0.04,VWS V14.01,2013-05-20 16:19:00,
2013-05-20 12:24:00,70.2,51.7,30.06,SW,218,0.0,3.6,52,0.00,,---,0.04,VWS V14.01,2013-05-20 16:24:00,
2013-05-20 12:29:00,70.5,53.1,30.03,WSW,237,0.0,2.2,54,0.00,,---,0.04,VWS V14.01,2013-05-20 16:29:00,
2013-05-20 12:34:00,71.1,51.5,30.03,ENE,75,2.7,4.9,50,0.00,,---,0.04,VWS V14.01,2013-05-20 16:34:00,
2013-05-20 12:39:00,70.9,50.8,30.03,WSW,246,0.0,0.0,49,0.00,,---,0.04,VWS V14.01,2013-05-20 16:39:00,
2013-05-20 12:44:00,71.1,50.4,30.03,WNW,282,3.6,5.8,48,0.00,,---,0.04,VWS V14.01,2013-05-20 16:44:00,
2013-05-20 12:49:00,71.1,51.5,30.03,North,357,0.0,0.0,50,0.00,,---,0.04,VWS V14.01,2013-05-20 16:49:00,
2013-05-20 12:54:00,71.2,51.7,30.03,West,281,0.0,0.0,50,0.00,,---,0.04,VWS V14.01,2013-05-20 16:54:00,
2013-05-20 12:59:00,71.4,51.8,30.03,SW,232,0.0,0.0,50,0.00,,---,0.04,VWS V14.01,2013-05-20 16:59:00,
2013-05-20 13:04:00,71.8,52.2,30.03,West,267,0.0,0.0,50,0.00,,---,0.04,VWS V14.01,2013-05-20 17:04:00,
2013-05-20 13:09:00,72.5,51.2,30.03,ESE,107,0.0,2.2,47,0.00,,---,0.04,VWS V14.01,2013-05-20 17:09:00,
2013-05-20 13:14:00,73.0,51.6,30.03,SW,222,0.0,0.0,47,0.00,,---,0.04,VWS V14.01,2013-05-20 17:14:00,
2013-05-20 13:19:00,73.0,50.5,30.03,WSW,246,4.0,4.5,45,0.00,,---,0.04,VWS V14.01,2013-05-20 17:19:00,
2013-05-20 13:24:00,72.9,50.3,30.03,WSW,249,2.7,2.7,45,0.00,,---,0.04,VWS V14.01,2013-05-20 17:24:00,
2013-05-20 13:29:00,72.7,50.1,30.03,WSW,250,3.6,4.9,45,0.00,,---,0.04,VWS V14.01,2013-05-20 17:29:00,
2013-05-20 13:34:00,73.0,50.5,30.03,West,281,3.1,3.6,45,0.00,,---,0.04,VWS V14.01,2013-05-20 17:34:00,
2013-05-20 13:39:00,73.4,50.2,30.03,NW,310,2.7,3.1,44,0.00,,---,0.04,VWS V14.01,2013-05-20 17:39:00,
2013-05-20 13:44:00,73.8,49.9,30.01,NE,47,0.0,0.0,43,0.00,,---,0.04,VWS V14.01,2013-05-20 17:44:00,
2013-05-20 13:49:00,74.3,51.0,30.01,SW,233,3.6,4.0,44,0.00,,---,0.04,VWS V14.01,2013-05-20 17:49:00,
2013-05-20 13:54:00,75.0,51.0,30.01,South,190,5.8,5.8,43,0.00,,---,0.04,VWS V14.01,2013-05-20 17:54:00,
2013-05-20 13:59:00,75.0,49.1,30.01,South,180,0.0,2.2,40,0.00,,---,0.04,VWS V14.01,2013-05-20 17:59:00,
2013-05-20 14:04:00,75.4,52.0,30.01,West,260,2.2,3.6,44,0.00,,---,0.04,VWS V14.01,2013-05-20 18:04:00,
2013-05-20 14:09:00,76.1,50.0,30.01,West,261,0.0,2.7,40,0.00,,---,0.04,VWS V14.01,2013-05-20 18:09:00,
2013-05-20 14:14:00,76.3,50.2,30.01,SSW,213,2.7,3.1,40,0.00,,---,0.04,VWS V14.01,2013-05-20 18:14:00,
2013-05-20 14:19:00,76.3,48.1,30.01,WSW,250,2.7,4.0,37,0.00,,---,0.04,VWS V14.01,2013-05-20 18:19:00,
2013-05-20 14:24:00,76.6,49.2,30.01,SW,216,2.2,3.6,38,0.00,,---,0.04,VWS V14.01,2013-05-20 18:24:00,
2013-05-20 14:29:00,76.5,48.3,30.01,SSE,152,4.0,5.4,37,0.00,,---,0.04,VWS V14.01,2013-05-20 18:29:00,
2013-05-20 14:34:00,75.9,47.1,30.01,WSW,244,2.2,2.7,36,0.00,,---,0.04,VWS V14.01,2013-05-20 18:34:00,
2013-05-20 14:39:00,75.2,47.2,30.01,WSW,237,0.0,3.1,37,0.00,,---,0.04,VWS V14.01,2013-05-20 18:39:00,
2013-05-20 14:44:00,74.8,48.2,30.01,SW,226,0.0,0.0,39,0.00,,---,0.04,VWS V14.01,2013-05-20 18:44:00,
2013-05-20 14:49:00,75.2,47.9,30.01,West,264,3.6,3.6,38,0.00,,---,0.04,VWS V14.01,2013-05-20 18:49:00,
2013-05-20 14:54:00,75.4,48.0,30.01,WSW,252,2.7,3.6,38,0.00,,---,0.04,VWS V14.01,2013-05-20 18:54:00,
2013-05-20 14:59:00,75.9,49.9,30.01,WNW,287,2.7,2.7,40,0.00,,---,0.04,VWS V14.01,2013-05-20 18:59:00,
2013-05-20 15:04:00,76.6,47.7,30.01,WSW,249,3.6,6.3,36,0.00,,---,0.04,VWS V14.01,2013-05-20 19:04:00,
2013-05-20 15:09:00,77.0,47.3,30.01,WNW,294,2.2,2.7,35,0.00,,---,0.04,VWS V14.01,2013-05-20 19:09:00,
2013-05-20 15:14:00,77.0,46.5,30.01,East,81,0.0,0.0,34,0.00,,---,0.04,VWS V14.01,2013-05-20 19:14:00,
2013-05-20 15:19:00,76.8,47.1,30.01,SW,219,4.9,5.4,35,0.00,,---,0.04,VWS V14.01,2013-05-20 19:19:00,
2013-05-20 15:24:00,75.9,47.8,30.01,SSE,161,4.0,4.0,37,0.00,,---,0.04,VWS V14.01,2013-05-20 19:24:00,
2013-05-20 15:30:00,74.7,48.1,29.98,SSW,196,4.9,4.9,39,0.00,,---,0.04,VWS V14.01,2013-05-20 19:30:00,
2013-05-20 15:35:00,73.9,49.4,29.98,SSW,212,2.7,5.8,42,0.00,,---,0.04,VWS V14.01,2013-05-20 19:35:00,
2013-05-20 15:40:00,72.9,50.3,29.98,SSW,211,0.0,2.2,45,0.00,,---,0.04,VWS V14.01,2013-05-20 19:40:00,
2013-05-20 15:45:00,72.0,50.1,30.01,SSW,193,2.7,3.1,46,0.00,,---,0.04,VWS V14.01,2013-05-20 19:45:00,
2013-05-20 15:50:00,71.4,50.7,30.01,SW,236,4.9,4.9,48,0.00,,---,0.04,VWS V14.01,2013-05-20 19:50:00,
2013-05-20 15:55:00,70.7,51.2,30.01,SSW,212,4.9,5.8,50,0.00,,---,0.04,VWS V14.01,2013-05-20 19:55:00,
2013-05-20 16:00:00,70.0,51.6,30.01,WSW,241,2.7,2.7,52,0.00,,---,0.04,VWS V14.01,2013-05-20 20:00:00,
2013-05-20 16:05:00,69.4,52.6,30.01,WSW,239,3.6,4.9,55,0.00,,---,0.04,VWS V14.01,2013-05-20 20:05:00,
2013-05-20 16:10:00,69.3,53.4,30.01,SW,228,2.7,2.7,57,0.00,,---,0.04,VWS V14.01,2013-05-20 20:10:00,
2013-05-20 16:15:00,68.9,54.0,30.01,SW,230,2.7,3.6,59,0.00,,---,0.04,VWS V14.01,2013-05-20 20:15:00,
2013-05-20 16:20:00,68.5,54.1,30.01,SW,216,2.7,2.7,60,0.00,,---,0.04,VWS V14.01,2013-05-20 20:20:00,
2013-05-20 16:25:00,68.4,54.8,30.01,West,277,3.1,3.1,62,0.00,,---,0.04,VWS V14.01,2013-05-20 20:25:00,
2013-05-20 16:30:00,68.2,54.7,30.01,WSW,239,0.0,0.0,62,0.00,,---,0.04,VWS V14.01,2013-05-20 20:30:00,
2013-05-20 16:35:00,68.2,54.2,30.01,West,274,0.0,0.0,61,0.00,,---,0.04,VWS V14.01,2013-05-20 20:35:00,
2013-05-20 16:40:00,68.2,53.8,30.01,WSW,243,0.0,0.0,60,0.00,,---,0.04,VWS V14.01,2013-05-20 20:40:00,
2013-05-20 16:45:00,68.0,53.6,30.01,ESE,118,0.0,0.0,60,0.00,,---,0.04,VWS V14.01,2013-05-20 20:45:00,
2013-05-20 16:50:00,67.8,53.9,30.01,ESE,118,0.0,0.0,61,0.00,,---,0.04,VWS V14.01,2013-05-20 20:50:00,
2013-05-20 16:55:00,67.6,54.2,30.01,ESE,118,0.0,0.0,62,0.00,,---,0.04,VWS V14.01,2013-05-20 20:55:00,
2013-05-20 17:00:00,67.5,54.4,29.98,ESE,119,0.0,0.0,63,0.00,,---,0.04,VWS V14.01,2013-05-20 21:00:00,
2013-05-20 17:05:00,67.3,54.3,29.98,ESE,119,0.0,0.0,63,0.00,,---,0.04,VWS V14.01,2013-05-20 21:05:00,
2013-05-20 17:10:00,67.1,54.5,29.98,SSW,199,0.0,0.0,64,0.00,,---,0.04,VWS V14.01,2013-05-20 21:10:00,
2013-05-20 17:15:00,67.1,54.5,29.98,SSW,199,0.0,0.0,64,0.00,,---,0.04,VWS V14.01,2013-05-20 21:15:00,
2013-05-20 17:20:00,67.1,55.0,29.98,SSW,199,0.0,0.0,65,0.00,,---,0.04,VWS V14.01,2013-05-20 21:20:00,
2013-05-20 17:25:00,66.9,54.8,29.98,SSW,199,0.0,0.0,65,0.00,,---,0.04,VWS V14.01,2013-05-20 21:25:00,
2013-05-20 17:30:00,66.9,55.2,29.98,West,269,3.1,3.6,66,0.00,,---,0.04,VWS V14.01,2013-05-20 21:30:00,
2013-05-20 17:35:00,67.1,55.4,29.98,NNW,343,3.1,3.1,66,0.00,,---,0.04,VWS V14.01,2013-05-20 21:35:00,
2013-05-20 17:40:00,67.1,55.4,29.98,NNW,340,2.7,2.7,66,0.00,,---,0.04,VWS V14.01,2013-05-20 21:40:00,
2013-05-20 17:45:00,67.1,55.8,29.98,NW,310,0.0,0.0,67,0.00,,---,0.04,VWS V14.01,2013-05-20 21:45:00,
2013-05-20 17:50:00,66.9,56.0,29.98,NNE,33,0.0,0.0,68,0.00,,---,0.04,VWS V14.01,2013-05-20 21:50:00,
2013-05-20 17:55:00,66.7,56.3,29.98,NE,44,0.0,0.0,69,0.00,,---,0.04,VWS V14.01,2013-05-20 21:55:00,
2013-05-20 18:00:00,66.6,56.1,30.01,NE,45,0.0,0.0,69,0.00,,---,0.04,VWS V14.01,2013-05-20 22:00:00,
2013-05-20 18:05:00,66.4,56.3,30.01,NE,45,0.0,0.0,70,0.00,,---,0.04,VWS V14.01,2013-05-20 22:05:00,
2013-05-20 18:10:00,66.4,56.3,30.01,NE,45,0.0,0.0,70,0.00,,---,0.04,VWS V14.01,2013-05-20 22:10:00,
2013-05-20 18:15:00,66.2,56.5,29.98,NE,45,0.0,0.0,71,0.00,,---,0.04,VWS V14.01,2013-05-20 22:15:00,
2013-05-20 18:20:00,66.2,56.5,29.98,NE,45,0.0,0.0,71,0.00,,---,0.04,VWS V14.01,2013-05-20 22:20:00,
2013-05-20 18:25:00,66.4,56.7,29.98,NE,45,0.0,0.0,71,0.00,,---,0.04,VWS V14.01,2013-05-20 22:25:00,
2013-05-20 18:31:00,66.4,57.1,29.98,WNW,291,0.0,0.0,72,0.00,,---,0.04,VWS V14.01,2013-05-20 22:31:00,
2013-05-20 18:36:00,66.6,57.3,29.98,WNW,284,0.0,0.0,72,0.00,,---,0.04,VWS V14.01,2013-05-20 22:36:00,
2013-05-20 18:41:00,66.7,57.8,29.98,WNW,284,0.0,0.0,73,0.00,,---,0.04,VWS V14.01,2013-05-20 22:41:00,
2013-05-20 18:46:00,66.7,57.8,29.98,West,272,0.0,2.7,73,0.00,,---,0.04,VWS V14.01,2013-05-20 22:46:00,
2013-05-20 18:51:00,66.9,58.0,29.98,NW,310,2.7,2.7,73,0.00,,---,0.04,VWS V14.01,2013-05-20 22:51:00,
2013-05-20 18:56:00,67.3,58.3,29.98,NW,306,0.0,0.0,73,0.00,,---,0.04,VWS V14.01,2013-05-20 22:56:00,
2013-05-20 19:01:00,67.5,58.9,29.98,NW,306,0.0,0.0,74,0.00,,---,0.04,VWS V14.01,2013-05-20 23:01:00,
2013-05-20 19:06:00,67.6,59.1,29.98,NW,306,0.0,0.0,74,0.00,,---,0.04,VWS V14.01,2013-05-20 23:06:00,
2013-05-20 19:11:00,68.0,59.4,29.98,WNW,287,0.0,2.7,74,0.00,,---,0.04,VWS V14.01,2013-05-20 23:11:00,
2013-05-20 19:16:00,68.0,58.7,30.01,ENE,73,3.6,4.5,72,0.00,,---,0.04,VWS V14.01,2013-05-20 23:16:00,
2013-05-20 19:21:00,67.8,58.5,30.01,East,89,3.1,4.0,72,0.00,,---,0.04,VWS V14.01,2013-05-20 23:21:00,
2013-05-20 19:26:00,67.8,58.5,30.01,ENE,74,0.0,2.7,72,0.00,,---,0.04,VWS V14.01,2013-05-20 23:26:00,
2013-05-20 19:31:00,67.6,58.3,30.01,ENE,75,0.0,0.0,72,0.00,,---,0.04,VWS V14.01,2013-05-20 23:31:00,
2013-05-20 19:36:00,67.5,58.1,30.01,ENE,75,0.0,0.0,72,0.00,,---,0.04,VWS V14.01,2013-05-20 23:36:00,
2013-05-20 19:41:00,67.3,58.3,30.01,ENE,75,0.0,0.0,73,0.00,,---,0.04,VWS V14.01,2013-05-20 23:41:00,
2013-05-20 19:46:00,66.9,58.0,30.01,ENE,75,0.0,0.0,73,0.00,,---,0.04,VWS V14.01,2013-05-20 23:46:00,
2013-05-20 19:51:00,66.4,57.1,30.01,ENE,75,0.0,0.0,72,0.00,,---,0.04,VWS V14.01,2013-05-20 23:51:00,
2013-05-20 19:56:00,66.0,56.7,30.01,ENE,75,0.0,0.0,72,0.00,,---,0.04,VWS V14.01,2013-05-20 23:56:00,
2013-05-20 20:01:00,65.7,56.4,30.01,ENE,71,0.0,0.0,72,0.00,,---,0.04,VWS V14.01,2013-05-21 00:01:00,
2013-05-20 20:06:00,65.5,56.6,30.01,ENE,71,0.0,0.0,73,0.00,,---,0.04,VWS V14.01,2013-05-21 00:06:00,
2013-05-20 20:11:00,65.3,56.4,30.01,ENE,72,0.0,0.0,73,0.00,,---,0.04,VWS V14.01,2013-05-21 00:11:00,
2013-05-20 20:16:00,65.1,56.6,29.98,ENE,72,0.0,0.0,74,0.00,,---,0.04,VWS V14.01,2013-05-21 00:16:00,
2013-05-20 20:21:00,64.9,56.5,29.98,ENE,72,0.0,0.0,74,0.00,,---,0.04,VWS V14.01,2013-05-21 00:21:00,
2013-05-20 20:26:00,64.8,56.7,29.98,ENE,72,0.0,0.0,75,0.00,,---,0.04,VWS V14.01,2013-05-21 00:26:00,
2013-05-20 20:31:00,64.6,56.8,30.01,East,86,0.0,0.0,76,0.00,,---,0.04,VWS V14.01,2013-05-21 00:31:00,
2013-05-20 20:36:00,64.6,57.2,30.01,East,86,0.0,0.0,77,0.00,,---,0.04,VWS V14.01,2013-05-21 00:36:00,
2013-05-20 20:41:00,64.4,57.0,30.01,East,86,0.0,0.0,77,0.00,,---,0.04,VWS V14.01,2013-05-21 00:41:00,
2013-05-20 20:46:00,64.2,57.2,29.98,East,86,0.0,0.0,78,0.00,,---,0.04,VWS V14.01,2013-05-21 00:46:00,
2013-05-20 20:51:00,63.9,57.2,29.98,East,86,0.0,0.0,79,0.00,,---,0.04,VWS V14.01,2013-05-21 00:51:00,
2013-05-20 20:56:00,63.7,57.0,29.98,East,86,0.0,0.0,79,0.00,,---,0.04,VWS V14.01,2013-05-21 00:56:00,
2013-05-20 21:01:00,63.3,56.7,29.98,East,86,0.0,0.0,79,0.00,,---,0.04,VWS V14.01,2013-05-21 01:01:00,
2013-05-20 21:06:00,63.0,56.3,29.98,East,86,0.0,0.0,79,0.00,,---,0.04,VWS V14.01,2013-05-21 01:06:00,
2013-05-20 21:11:00,62.8,56.2,29.98,East,86,0.0,0.0,79,0.00,,---,0.04,VWS V14.01,2013-05-21 01:11:00,
2013-05-20 21:16:00,62.6,56.0,30.01,ENE,62,3.1,3.6,79,0.00,,---,0.04,VWS V14.01,2013-05-21 01:16:00,
2013-05-20 21:21:00,62.8,56.5,30.01,ENE,62,0.0,0.0,80,0.00,,---,0.04,VWS V14.01,2013-05-21 01:21:00,
2013-05-20 21:26:00,62.8,56.5,30.01,ENE,62,0.0,0.0,80,0.00,,---,0.04,VWS V14.01,2013-05-21 01:26:00,
2013-05-20 21:32:00,62.8,56.9,30.01,ENE,62,0.0,0.0,81,0.00,,---,0.04,VWS V14.01,2013-05-21 01:32:00,
2013-05-20 21:37:00,62.6,56.7,30.01,ENE,62,0.0,0.0,81,0.00,,---,0.04,VWS V14.01,2013-05-21 01:37:00,
2013-05-20 21:42:00,62.6,56.7,29.98,ENE,62,0.0,0.0,81,0.00,,---,0.04,VWS V14.01,2013-05-21 01:42:00,
2013-05-20 21:47:00,62.8,57.2,29.98,WSW,238,0.0,0.0,82,0.00,,---,0.04,VWS V14.01,2013-05-21 01:47:00,
2013-05-20 21:52:00,63.0,57.7,29.98,WSW,238,0.0,0.0,83,0.00,,---,0.04,VWS V14.01,2013-05-21 01:52:00,
2013-05-20 21:57:00,63.0,57.7,29.98,WSW,238,0.0,0.0,83,0.00,,---,0.04,VWS V14.01,2013-05-21 01:57:00,
2013-05-20 22:02:00,62.8,57.5,29.98,WSW,238,0.0,0.0,83,0.00,,---,0.04,VWS V14.01,2013-05-21 02:02:00,
2013-05-20 22:07:00,62.8,57.5,29.98,North,11,0.0,0.0,83,0.00,,---,0.04,VWS V14.01,2013-05-21 02:07:00,
2013-05-20 22:12:00,62.8,57.9,29.98,North,11,0.0,0.0,84,0.00,,---,0.04,VWS V14.01,2013-05-21 02:12:00,
2013-05-20 22:17:00,62.6,57.7,29.98,North,11,0.0,0.0,84,0.00,,---,0.04,VWS V14.01,2013-05-21 02:17:00,
2013-05-20 22:22:00,62.4,57.9,29.98,North,11,0.0,0.0,85,0.00,,---,0.04,VWS V14.01,2013-05-21 02:22:00,
2013-05-20 22:27:00,62.2,57.7,29.98,North,11,0.0,0.0,85,0.00,,---,0.04,VWS V14.01,2013-05-21 02:27:00,
2013-05-20 22:32:00,62.2,57.7,29.98,North,11,0.0,0.0,85,0.00,,---,0.04,VWS V14.01,2013-05-21 02:32:00,
2013-05-20 22:37:00,62.2,57.7,29.98,North,11,0.0,0.0,85,0.00,,---,0.04,VWS V14.01,2013-05-21 02:37:00,
2013-05-20 22:42:00,62.2,58.0,29.98,North,11,0.0,0.0,86,0.00,,---,0.04,VWS V14.01,2013-05-21 02:42:00,
2013-05-20 22:47:00,62.1,57.8,29.98,SSW,211,3.1,3.1,86,0.00,,---,0.04,VWS V14.01,2013-05-21 02:47:00,
2013-05-20 22:52:00,61.9,57.3,29.98,SSW,211,0.0,0.0,85,0.00,,---,0.04,VWS V14.01,2013-05-21 02:52:00,
2013-05-20 22:57:00,62.2,58.0,29.98,SSW,211,0.0,0.0,86,0.00,,---,0.04,VWS V14.01,2013-05-21 02:57:00,
2013-05-20 23:02:00,62.1,57.8,29.98,SSW,211,0.0,0.0,86,0.00,,---,0.04,VWS V14.01,2013-05-21 03:02:00,
2013-05-20 23:07:00,61.9,57.7,29.98,SSW,211,0.0,0.0,86,0.00,,---,0.04,VWS V14.01,2013-05-21 03:07:00,
2013-05-20 23:12:00,61.7,57.5,30.01,SSW,211,0.0,0.0,86,0.00,,---,0.04,VWS V14.01,2013-05-21 03:12:00,
2013-05-20 23:17:00,61.5,57.3,30.01,SSW,211,0.0,0.0,86,0.00,,---,0.04,VWS V14.01,2013-05-21 03:17:00,
2013-05-20 23:22:00,61.7,57.8,30.01,SSW,211,0.0,0.0,87,0.00,,---,0.04,VWS V14.01,2013-05-21 03:22:00,
2013-05-20 23:27:00,61.7,57.8,30.01,SSW,211,0.0,0.0,87,0.00,,---,0.04,VWS V14.01,2013-05-21 03:27:00,
2013-05-20 23:32:00,61.7,57.8,30.01,SSW,211,0.0,0.0,87,0.00,,---,0.04,VWS V14.01,2013-05-21 03:32:00,
2013-05-20 23:37:00,61.9,58.0,30.01,SSW,211,0.0,0.0,87,0.00,,---,0.04,VWS V14.01,2013-05-21 03:37:00,
2013-05-20 23:42:00,61.9,58.3,30.01,SSW,211,0.0,0.0,88,0.00,,---,0.04,VWS V14.01,2013-05-21 03:42:00,
2013-05-20 23:47:00,61.9,58.3,30.01,SSW,211,0.0,0.0,88,0.00,,---,0.04,VWS V14.01,2013-05-21 03:47:00,
2013-05-20 23:52:00,61.9,58.3,30.01,SSW,211,0.0,0.0,88,0.00,,---,0.04,VWS V14.01,2013-05-21 03:52:00,
2013-05-20 23:57:00,61.9,58.3,29.98,SSW,211,0.0,0.0,88,0.00,,---,0.04,VWS V14.01,2013-05-21 03:57:00,